aviador You're here:

WBKS Decoded Metar

SANDAKAN/KALIMAN in _UNIDENTIFIED
Report Time2017-08-18 16:00:00
UTC Time2017-08-18 16:28:19
Flight Rules vfr VFR
Wind160° at 03 kt
W.Decomp.*RWY 08: 0.5 kt HW 3.0 kt RCW
W.Rank160° ranks 27
Current wind is below 160° avg. (3.3)
Visibility9999 m
Phenomena:N/A
Clouds:Few 015 Hf
Broken 280 Hf
Expected CloudBase > 800 ft AGL from Temp-Dew spread
Ceiling28,000 ft
Temp25°C (ISA +10)
Dew Point23°C (89% RH)
QNH1011 hPa
Density Alt1,647 ft
Elevation43 ft
Report Wrong Elevation
Raw Report
METAR WBKS 181600Z 16003KT 100V210 9999 FEW015 BKN280 25/23 Q1011=

Extra information for WBKS:More info

Metar Taf Metar & Taf Last 4 Metars F.Rules Stats Wind Profile Meteogram Temp Stats Airport Information Weather charts Add Link Nearby VenuesMetar ALERT Operation Metar Decoded Social comments